sensor_id;sensor_type;location;lat;lon;timestamp;P1;durP1;ratioP1;P2;durP2;ratioP2
64903;SDS011;51401;48.882;12.598;2023-11-21T00:02:24;4.93;;;2.35;;
64903;SDS011;51401;48.882;12.598;2023-11-21T00:04:50;4.35;;;2.88;;
64903;SDS011;51401;48.882;12.598;2023-11-21T00:07:16;4.68;;;2.53;;
64903;SDS011;51401;48.882;12.598;2023-11-21T00:09:41;4.63;;;2.63;;
64903;SDS011;51401;48.882;12.598;2023-11-21T00:12:07;3.33;;;2.57;;
64903;SDS011;51401;48.882;12.598;2023-11-21T00:14:39;3.90;;;2.60;;
64903;SDS011;51401;48.882;12.598;2023-11-21T00:17:04;4.10;;;2.72;;
64903;SDS011;51401;48.882;12.598;2023-11-21T00:19:30;8.27;;;4.53;;
64903;SDS011;51401;48.882;12.598;2023-11-21T00:21:56;5.05;;;3.88;;
64903;SDS011;51401;48.882;12.598;2023-11-21T00:24:23;8.57;;;3.20;;
64903;SDS011;51401;48.882;12.598;2023-11-21T00:26:49;6.32;;;3.30;;
64903;SDS011;51401;48.882;12.598;2023-11-21T00:29:15;5.82;;;2.92;;
64903;SDS011;51401;48.882;12.598;2023-11-21T00:31:44;5.65;;;3.08;;
64903;SDS011;51401;48.882;12.598;2023-11-21T00:34:11;3.67;;;2.80;;
64903;SDS011;51401;48.882;12.598;2023-11-21T00:36:40;5.07;;;2.33;;
64903;SDS011;51401;48.882;12.598;2023-11-21T00:39:05;4.10;;;3.45;;
64903;SDS011;51401;48.882;12.598;2023-11-21T00:41:31;6.60;;;3.15;;
64903;SDS011;51401;48.882;12.598;2023-11-21T00:43:57;6.35;;;3.20;;
64903;SDS011;51401;48.882;12.598;2023-11-21T00:46:22;5.18;;;3.08;;
64903;SDS011;51401;48.882;12.598;2023-11-21T00:48:49;3.60;;;2.63;;
64903;SDS011;51401;48.882;12.598;2023-11-21T00:51:14;4.93;;;2.42;;
64903;SDS011;51401;48.882;12.598;2023-11-21T00:53:39;4.40;;;2.53;;
64903;SDS011;51401;48.882;12.598;2023-11-21T00:56:05;3.63;;;2.60;;
64903;SDS011;51401;48.882;12.598;2023-11-21T00:58:30;6.53;;;2.72;;
64903;SDS011;51401;48.882;12.598;2023-11-21T01:00:56;4.82;;;2.78;;
64903;SDS011;51401;48.882;12.598;2023-11-21T01:03:21;9.20;;;3.70;;
64903;SDS011;51401;48.882;12.598;2023-11-21T01:05:50;5.90;;;3.85;;
64903;SDS011;51401;48.882;12.598;2023-11-21T01:08:15;4.65;;;3.17;;
64903;SDS011;51401;48.882;12.598;2023-11-21T01:10:40;5.65;;;3.30;;
64903;SDS011;51401;48.882;12.598;2023-11-21T01:13:06;3.70;;;2.55;;
64903;SDS011;51401;48.882;12.598;2023-11-21T01:15:32;3.75;;;2.53;;
64903;SDS011;51401;48.882;12.598;2023-11-21T01:17:57;5.88;;;3.08;;
64903;SDS011;51401;48.882;12.598;2023-11-21T01:20:22;4.57;;;3.20;;
64903;SDS011;51401;48.882;12.598;2023-11-21T01:22:48;3.72;;;2.70;;
64903;SDS011;51401;48.882;12.598;2023-11-21T01:25:16;4.97;;;2.97;;
64903;SDS011;51401;48.882;12.598;2023-11-21T01:27:41;7.55;;;3.58;;
64903;SDS011;51401;48.882;12.598;2023-11-21T01:30:07;5.15;;;3.35;;
64903;SDS011;51401;48.882;12.598;2023-11-21T01:32:35;4.93;;;3.58;;
64903;SDS011;51401;48.882;12.598;2023-11-21T01:35:01;4.60;;;3.72;;
64903;SDS011;51401;48.882;12.598;2023-11-21T01:37:26;4.70;;;3.50;;
64903;SDS011;51401;48.882;12.598;2023-11-21T01:39:53;4.82;;;3.53;;
64903;SDS011;51401;48.882;12.598;2023-11-21T01:42:19;7.10;;;3.53;;
64903;SDS011;51401;48.882;12.598;2023-11-21T01:44:45;5.65;;;3.70;;
64903;SDS011;51401;48.882;12.598;2023-11-21T01:47:11;5.75;;;3.50;;
64903;SDS011;51401;48.882;12.598;2023-11-21T01:49:37;4.70;;;3.40;;
64903;SDS011;51401;48.882;12.598;2023-11-21T01:52:03;6.13;;;3.67;;
64903;SDS011;51401;48.882;12.598;2023-11-21T01:54:29;4.53;;;3.47;;
64903;SDS011;51401;48.882;12.598;2023-11-21T01:57:01;5.97;;;3.70;;
64903;SDS011;51401;48.882;12.598;2023-11-21T01:59:27;5.85;;;3.30;;
64903;SDS011;51401;48.882;12.598;2023-11-21T02:01:58;6.30;;;2.97;;
64903;SDS011;51401;48.882;12.598;2023-11-21T02:04:24;5.70;;;3.10;;
64903;SDS011;51401;48.882;12.598;2023-11-21T02:06:50;5.57;;;3.03;;
64903;SDS011;51401;48.882;12.598;2023-11-21T02:09:15;4.45;;;3.63;;
64903;SDS011;51401;48.882;12.598;2023-11-21T02:11:42;6.05;;;3.53;;
64903;SDS011;51401;48.882;12.598;2023-11-21T02:14:07;4.35;;;3.33;;
64903;SDS011;51401;48.882;12.598;2023-11-21T02:16:34;5.00;;;3.60;;
64903;SDS011;51401;48.882;12.598;2023-11-21T02:19:00;5.55;;;3.63;;
64903;SDS011;51401;48.882;12.598;2023-11-21T02:21:26;6.22;;;3.72;;
64903;SDS011;51401;48.882;12.598;2023-11-21T02:23:52;10.00;;;3.40;;
64903;SDS011;51401;48.882;12.598;2023-11-21T02:26:18;8.80;;;3.92;;
64903;SDS011;51401;48.882;12.598;2023-11-21T02:28:43;5.40;;;2.90;;
64903;SDS011;51401;48.882;12.598;2023-11-21T02:31:08;4.63;;;3.22;;
64903;SDS011;51401;48.882;12.598;2023-11-21T02:33:34;5.10;;;3.22;;
64903;SDS011;51401;48.882;12.598;2023-11-21T02:36:02;4.40;;;3.38;;
64903;SDS011;51401;48.882;12.598;2023-11-21T02:38:28;4.22;;;3.25;;
64903;SDS011;51401;48.882;12.598;2023-11-21T02:40:53;5.40;;;3.58;;
64903;SDS011;51401;48.882;12.598;2023-11-21T02:43:19;7.40;;;3.33;;
64903;SDS011;51401;48.882;12.598;2023-11-21T02:45:44;4.80;;;3.20;;
64903;SDS011;51401;48.882;12.598;2023-11-21T02:48:09;4.68;;;3.10;;
64903;SDS011;51401;48.882;12.598;2023-11-21T02:50:34;5.35;;;3.58;;
64903;SDS011;51401;48.882;12.598;2023-11-21T02:53:00;5.05;;;3.38;;
64903;SDS011;51401;48.882;12.598;2023-11-21T02:55:27;7.97;;;3.80;;
64903;SDS011;51401;48.882;12.598;2023-11-21T02:57:53;5.72;;;3.83;;
64903;SDS011;51401;48.882;12.598;2023-11-21T03:00:18;6.03;;;3.92;;
64903;SDS011;51401;48.882;12.598;2023-11-21T03:02:43;5.10;;;3.80;;
64903;SDS011;51401;48.882;12.598;2023-11-21T03:05:09;5.07;;;3.67;;
64903;SDS011;51401;48.882;12.598;2023-11-21T03:07:35;5.53;;;3.22;;
64903;SDS011;51401;48.882;12.598;2023-11-21T03:10:01;5.28;;;3.80;;
64903;SDS011;51401;48.882;12.598;2023-11-21T03:12:26;6.57;;;3.87;;
64903;SDS011;51401;48.882;12.598;2023-11-21T03:14:51;6.00;;;3.77;;
64903;SDS011;51401;48.882;12.598;2023-11-21T03:17:17;4.40;;;3.70;;
64903;SDS011;51401;48.882;12.598;2023-11-21T03:19:42;7.72;;;4.80;;
64903;SDS011;51401;48.882;12.598;2023-11-21T03:22:07;6.22;;;4.28;;
64903;SDS011;51401;48.882;12.598;2023-11-21T03:24:33;5.68;;;4.47;;
64903;SDS011;51401;48.882;12.598;2023-11-21T03:26:59;5.95;;;4.22;;
64903;SDS011;51401;48.882;12.598;2023-11-21T03:29:25;5.35;;;4.47;;
64903;SDS011;51401;48.882;12.598;2023-11-21T03:31:51;8.38;;;4.45;;
64903;SDS011;51401;48.882;12.598;2023-11-21T03:34:26;5.53;;;3.80;;
64903;SDS011;51401;48.882;12.598;2023-11-21T03:36:52;9.38;;;5.70;;
64903;SDS011;51401;48.882;12.598;2023-11-21T03:39:21;7.30;;;4.20;;
64903;SDS011;51401;48.882;12.598;2023-11-21T03:41:47;5.13;;;4.57;;
64903;SDS011;51401;48.882;12.598;2023-11-21T03:44:13;8.23;;;4.57;;
64903;SDS011;51401;48.882;12.598;2023-11-21T03:46:38;7.38;;;4.82;;
64903;SDS011;51401;48.882;12.598;2023-11-21T03:49:03;6.40;;;4.80;;
64903;SDS011;51401;48.882;12.598;2023-11-21T03:51:29;7.43;;;4.65;;
64903;SDS011;51401;48.882;12.598;2023-11-21T03:53:54;6.72;;;4.75;;
64903;SDS011;51401;48.882;12.598;2023-11-21T03:56:19;9.25;;;5.88;;
64903;SDS011;51401;48.882;12.598;2023-11-21T03:58:47;7.25;;;4.82;;
64903;SDS011;51401;48.882;12.598;2023-11-21T04:01:22;7.15;;;4.82;;
64903;SDS011;51401;48.882;12.598;2023-11-21T04:03:49;10.45;;;5.82;;
64903;SDS011;51401;48.882;12.598;2023-11-21T04:06:15;6.88;;;5.38;;
64903;SDS011;51401;48.882;12.598;2023-11-21T04:08:43;8.13;;;5.60;;
64903;SDS011;51401;48.882;12.598;2023-11-21T04:11:09;6.43;;;5.22;;
64903;SDS011;51401;48.882;12.598;2023-11-21T04:13:36;7.30;;;5.18;;
64903;SDS011;51401;48.882;12.598;2023-11-21T04:16:02;8.35;;;5.93;;
64903;SDS011;51401;48.882;12.598;2023-11-21T04:18:28;9.30;;;6.57;;
64903;SDS011;51401;48.882;12.598;2023-11-21T04:20:53;9.57;;;6.70;;
64903;SDS011;51401;48.882;12.598;2023-11-21T04:23:19;10.23;;;7.20;;
64903;SDS011;51401;48.882;12.598;2023-11-21T04:25:44;8.98;;;6.65;;
64903;SDS011;51401;48.882;12.598;2023-11-21T04:28:09;7.50;;;6.53;;
64903;SDS011;51401;48.882;12.598;2023-11-21T04:30:35;7.40;;;6.10;;
64903;SDS011;51401;48.882;12.598;2023-11-21T04:33:00;9.88;;;5.95;;
64903;SDS011;51401;48.882;12.598;2023-11-21T04:35:25;7.17;;;5.90;;
64903;SDS011;51401;48.882;12.598;2023-11-21T04:37:50;9.30;;;6.87;;
64903;SDS011;51401;48.882;12.598;2023-11-21T04:40:16;9.32;;;5.95;;
64903;SDS011;51401;48.882;12.598;2023-11-21T04:42:41;8.55;;;6.00;;
64903;SDS011;51401;48.882;12.598;2023-11-21T04:45:07;8.10;;;6.28;;
64903;SDS011;51401;48.882;12.598;2023-11-21T04:47:34;8.75;;;5.60;;
64903;SDS011;51401;48.882;12.598;2023-11-21T04:49:59;9.15;;;5.80;;
64903;SDS011;51401;48.882;12.598;2023-11-21T04:52:25;6.82;;;5.15;;
64903;SDS011;51401;48.882;12.598;2023-11-21T04:54:50;8.50;;;5.43;;
64903;SDS011;51401;48.882;12.598;2023-11-21T04:57:16;7.75;;;5.70;;
64903;SDS011;51401;48.882;12.598;2023-11-21T04:59:43;10.38;;;5.68;;
64903;SDS011;51401;48.882;12.598;2023-11-21T05:02:08;9.25;;;5.28;;
64903;SDS011;51401;48.882;12.598;2023-11-21T05:04:33;10.73;;;5.93;;
64903;SDS011;51401;48.882;12.598;2023-11-21T05:06:59;5.38;;;4.70;;
64903;SDS011;51401;48.882;12.598;2023-11-21T05:09:25;7.05;;;4.97;;
64903;SDS011;51401;48.882;12.598;2023-11-21T05:11:50;8.10;;;5.65;;
64903;SDS011;51401;48.882;12.598;2023-11-21T05:14:16;9.43;;;6.57;;
64903;SDS011;51401;48.882;12.598;2023-11-21T05:16:43;7.70;;;5.03;;
64903;SDS011;51401;48.882;12.598;2023-11-21T05:19:08;9.93;;;5.20;;
64903;SDS011;51401;48.882;12.598;2023-11-21T05:21:34;7.93;;;5.55;;
64903;SDS011;51401;48.882;12.598;2023-11-21T05:24:01;7.95;;;5.03;;
64903;SDS011;51401;48.882;12.598;2023-11-21T05:26:26;7.25;;;4.57;;
64903;SDS011;51401;48.882;12.598;2023-11-21T05:28:51;7.85;;;5.13;;
64903;SDS011;51401;48.882;12.598;2023-11-21T05:31:20;7.93;;;5.93;;
64903;SDS011;51401;48.882;12.598;2023-11-21T05:33:45;6.57;;;5.47;;
64903;SDS011;51401;48.882;12.598;2023-11-21T05:36:10;8.57;;;5.32;;
64903;SDS011;51401;48.882;12.598;2023-11-21T05:38:36;6.53;;;4.85;;
64903;SDS011;51401;48.882;12.598;2023-11-21T05:41:01;8.80;;;5.57;;
64903;SDS011;51401;48.882;12.598;2023-11-21T05:43:28;6.20;;;4.38;;
64903;SDS011;51401;48.882;12.598;2023-11-21T05:45:55;6.80;;;4.45;;
64903;SDS011;51401;48.882;12.598;2023-11-21T05:48:21;6.68;;;4.20;;
64903;SDS011;51401;48.882;12.598;2023-11-21T05:50:46;7.93;;;4.45;;
64903;SDS011;51401;48.882;12.598;2023-11-21T05:53:14;6.00;;;3.92;;
64903;SDS011;51401;48.882;12.598;2023-11-21T05:55:40;4.65;;;3.72;;
64903;SDS011;51401;48.882;12.598;2023-11-21T05:58:06;6.15;;;3.67;;
64903;SDS011;51401;48.882;12.598;2023-11-21T06:00:32;6.10;;;3.70;;
64903;SDS011;51401;48.882;12.598;2023-11-21T06:02:58;5.40;;;3.35;;
64903;SDS011;51401;48.882;12.598;2023-11-21T06:05:24;5.68;;;3.50;;
64903;SDS011;51401;48.882;12.598;2023-11-21T06:07:50;5.90;;;3.88;;
64903;SDS011;51401;48.882;12.598;2023-11-21T06:10:17;6.57;;;3.97;;
64903;SDS011;51401;48.882;12.598;2023-11-21T06:12:44;5.30;;;3.47;;
64903;SDS011;51401;48.882;12.598;2023-11-21T06:15:10;8.25;;;3.38;;
64903;SDS011;51401;48.882;12.598;2023-11-21T06:17:38;5.15;;;4.03;;
64903;SDS011;51401;48.882;12.598;2023-11-21T06:20:07;5.72;;;3.20;;
64903;SDS011;51401;48.882;12.598;2023-11-21T06:22:35;4.40;;;3.17;;
64903;SDS011;51401;48.882;12.598;2023-11-21T06:25:01;5.72;;;3.50;;
64903;SDS011;51401;48.882;12.598;2023-11-21T06:27:27;6.65;;;4.57;;
64903;SDS011;51401;48.882;12.598;2023-11-21T06:29:53;7.33;;;5.30;;
64903;SDS011;51401;48.882;12.598;2023-11-21T06:32:18;6.25;;;5.03;;
64903;SDS011;51401;48.882;12.598;2023-11-21T06:34:45;8.18;;;5.20;;
64903;SDS011;51401;48.882;12.598;2023-11-21T06:37:10;9.23;;;6.45;;
64903;SDS011;51401;48.882;12.598;2023-11-21T06:39:36;8.48;;;5.75;;
64903;SDS011;51401;48.882;12.598;2023-11-21T06:42:02;8.95;;;6.00;;
64903;SDS011;51401;48.882;12.598;2023-11-21T06:44:27;7.55;;;5.50;;
64903;SDS011;51401;48.882;12.598;2023-11-21T06:46:52;6.93;;;4.15;;
64903;SDS011;51401;48.882;12.598;2023-11-21T06:49:18;8.93;;;5.03;;
64903;SDS011;51401;48.882;12.598;2023-11-21T06:51:43;6.93;;;4.40;;
64903;SDS011;51401;48.882;12.598;2023-11-21T06:54:08;6.03;;;4.40;;
64903;SDS011;51401;48.882;12.598;2023-11-21T06:56:34;7.05;;;4.65;;
64903;SDS011;51401;48.882;12.598;2023-11-21T06:58:59;6.67;;;4.77;;
64903;SDS011;51401;48.882;12.598;2023-11-21T07:01:24;6.93;;;5.10;;
64903;SDS011;51401;48.882;12.598;2023-11-21T07:03:49;7.50;;;5.35;;
64903;SDS011;51401;48.882;12.598;2023-11-21T07:06:15;6.47;;;5.05;;
64903;SDS011;51401;48.882;12.598;2023-11-21T07:08:40;6.85;;;5.15;;
64903;SDS011;51401;48.882;12.598;2023-11-21T07:11:06;7.18;;;4.97;;
64903;SDS011;51401;48.882;12.598;2023-11-21T07:13:32;7.07;;;5.32;;
64903;SDS011;51401;48.882;12.598;2023-11-21T07:15:58;7.90;;;5.50;;
64903;SDS011;51401;48.882;12.598;2023-11-21T07:18:24;8.45;;;6.38;;
64903;SDS011;51401;48.882;12.598;2023-11-21T07:20:49;8.32;;;6.38;;
64903;SDS011;51401;48.882;12.598;2023-11-21T07:23:14;10.23;;;6.53;;
64903;SDS011;51401;48.882;12.598;2023-11-21T07:25:40;10.30;;;5.88;;
64903;SDS011;51401;48.882;12.598;2023-11-21T07:28:06;8.65;;;5.90;;
64903;SDS011;51401;48.882;12.598;2023-11-21T07:30:32;7.55;;;5.20;;
64903;SDS011;51401;48.882;12.598;2023-11-21T07:32:58;9.93;;;6.25;;
64903;SDS011;51401;48.882;12.598;2023-11-21T07:35:23;7.45;;;5.47;;
64903;SDS011;51401;48.882;12.598;2023-11-21T07:37:49;10.32;;;6.05;;
64903;SDS011;51401;48.882;12.598;2023-11-21T07:40:14;10.02;;;6.05;;
64903;SDS011;51401;48.882;12.598;2023-11-21T07:42:40;7.63;;;6.32;;
64903;SDS011;51401;48.882;12.598;2023-11-21T07:45:07;9.65;;;6.15;;
64903;SDS011;51401;48.882;12.598;2023-11-21T07:47:33;10.50;;;6.25;;
64903;SDS011;51401;48.882;12.598;2023-11-21T07:49:59;10.00;;;6.25;;
64903;SDS011;51401;48.882;12.598;2023-11-21T07:52:25;10.38;;;6.57;;
64903;SDS011;51401;48.882;12.598;2023-11-21T07:54:50;7.80;;;5.53;;
64903;SDS011;51401;48.882;12.598;2023-11-21T07:57:16;7.88;;;6.28;;
64903;SDS011;51401;48.882;12.598;2023-11-21T07:59:41;7.78;;;6.40;;
64903;SDS011;51401;48.882;12.598;2023-11-21T08:02:07;12.25;;;7.13;;
64903;SDS011;51401;48.882;12.598;2023-11-21T08:04:32;9.25;;;6.65;;
64903;SDS011;51401;48.882;12.598;2023-11-21T08:06:58;8.82;;;6.93;;
64903;SDS011;51401;48.882;12.598;2023-11-21T08:09:23;11.23;;;6.20;;
64903;SDS011;51401;48.882;12.598;2023-11-21T08:11:48;8.75;;;6.88;;
64903;SDS011;51401;48.882;12.598;2023-11-21T08:14:14;8.95;;;5.72;;
64903;SDS011;51401;48.882;12.598;2023-11-21T08:16:40;6.32;;;5.40;;
64903;SDS011;51401;48.882;12.598;2023-11-21T08:19:05;8.05;;;5.78;;
64903;SDS011;51401;48.882;12.598;2023-11-21T08:21:31;8.10;;;6.35;;
64903;SDS011;51401;48.882;12.598;2023-11-21T08:23:56;8.15;;;6.93;;
64903;SDS011;51401;48.882;12.598;2023-11-21T08:26:22;10.05;;;6.32;;
64903;SDS011;51401;48.882;12.598;2023-11-21T08:28:47;10.55;;;6.18;;
64903;SDS011;51401;48.882;12.598;2023-11-21T08:31:13;7.93;;;5.93;;
64903;SDS011;51401;48.882;12.598;2023-11-21T08:33:38;8.20;;;5.95;;
64903;SDS011;51401;48.882;12.598;2023-11-21T08:36:10;10.15;;;6.93;;
64903;SDS011;51401;48.882;12.598;2023-11-21T08:38:36;10.25;;;6.53;;
64903;SDS011;51401;48.882;12.598;2023-11-21T08:41:04;8.80;;;6.20;;
64903;SDS011;51401;48.882;12.598;2023-11-21T08:43:35;10.55;;;6.03;;
64903;SDS011;51401;48.882;12.598;2023-11-21T08:46:05;9.40;;;6.32;;
64903;SDS011;51401;48.882;12.598;2023-11-21T08:48:36;8.18;;;5.55;;
64903;SDS011;51401;48.882;12.598;2023-11-21T08:51:02;8.20;;;5.45;;
64903;SDS011;51401;48.882;12.598;2023-11-21T08:53:29;6.00;;;4.78;;
64903;SDS011;51401;48.882;12.598;2023-11-21T08:55:54;11.05;;;6.00;;
64903;SDS011;51401;48.882;12.598;2023-11-21T08:58:19;6.25;;;4.97;;
64903;SDS011;51401;48.882;12.598;2023-11-21T09:00:45;7.32;;;5.00;;
64903;SDS011;51401;48.882;12.598;2023-11-21T09:03:11;7.18;;;5.45;;
64903;SDS011;51401;48.882;12.598;2023-11-21T09:05:37;7.85;;;5.47;;
64903;SDS011;51401;48.882;12.598;2023-11-21T09:08:04;5.95;;;5.22;;
64903;SDS011;51401;48.882;12.598;2023-11-21T09:10:29;6.80;;;5.35;;
64903;SDS011;51401;48.882;12.598;2023-11-21T09:12:54;11.02;;;6.25;;
64903;SDS011;51401;48.882;12.598;2023-11-21T09:15:19;10.45;;;6.30;;
64903;SDS011;51401;48.882;12.598;2023-11-21T09:17:45;7.05;;;5.65;;
64903;SDS011;51401;48.882;12.598;2023-11-21T09:20:11;7.10;;;5.40;;
64903;SDS011;51401;48.882;12.598;2023-11-21T09:22:36;6.72;;;5.57;;
64903;SDS011;51401;48.882;12.598;2023-11-21T09:25:02;7.00;;;5.55;;
64903;SDS011;51401;48.882;12.598;2023-11-21T09:27:30;10.60;;;6.38;;
64903;SDS011;51401;48.882;12.598;2023-11-21T09:29:55;6.55;;;5.75;;
64903;SDS011;51401;48.882;12.598;2023-11-21T09:32:23;8.30;;;5.88;;
64903;SDS011;51401;48.882;12.598;2023-11-21T09:34:48;9.90;;;6.88;;
64903;SDS011;51401;48.882;12.598;2023-11-21T09:37:15;8.98;;;6.30;;
64903;SDS011;51401;48.882;12.598;2023-11-21T09:39:40;8.63;;;5.82;;
64903;SDS011;51401;48.882;12.598;2023-11-21T09:42:13;9.43;;;6.68;;
64903;SDS011;51401;48.882;12.598;2023-11-21T09:44:54;7.68;;;5.75;;
64903;SDS011;51401;48.882;12.598;2023-11-21T09:47:29;6.60;;;5.70;;
64903;SDS011;51401;48.882;12.598;2023-11-21T09:49:54;9.30;;;6.57;;
64903;SDS011;51401;48.882;12.598;2023-11-21T09:52:22;9.45;;;7.28;;
64903;SDS011;51401;48.882;12.598;2023-11-21T09:54:50;11.05;;;6.65;;
64903;SDS011;51401;48.882;12.598;2023-11-21T09:57:19;12.48;;;6.65;;
64903;SDS011;51401;48.882;12.598;2023-11-21T09:59:46;8.63;;;6.25;;
64903;SDS011;51401;48.882;12.598;2023-11-21T10:02:12;7.88;;;5.35;;
64903;SDS011;51401;48.882;12.598;2023-11-21T10:04:38;9.63;;;5.88;;
64903;SDS011;51401;48.882;12.598;2023-11-21T10:07:04;9.13;;;5.15;;
64903;SDS011;51401;48.882;12.598;2023-11-21T10:09:34;7.68;;;5.13;;
64903;SDS011;51401;48.882;12.598;2023-11-21T10:12:02;7.18;;;5.63;;
64903;SDS011;51401;48.882;12.598;2023-11-21T10:14:33;11.15;;;6.72;;
64903;SDS011;51401;48.882;12.598;2023-11-21T10:17:00;11.65;;;6.90;;
64903;SDS011;51401;48.882;12.598;2023-11-21T10:19:25;9.43;;;6.20;;
64903;SDS011;51401;48.882;12.598;2023-11-21T10:21:52;9.40;;;6.40;;
64903;SDS011;51401;48.882;12.598;2023-11-21T10:24:17;9.70;;;6.28;;
64903;SDS011;51401;48.882;12.598;2023-11-21T10:26:43;9.75;;;6.47;;
64903;SDS011;51401;48.882;12.598;2023-11-21T10:29:08;10.27;;;6.30;;
64903;SDS011;51401;48.882;12.598;2023-11-21T10:31:37;9.60;;;6.43;;
64903;SDS011;51401;48.882;12.598;2023-11-21T10:36:40;7.57;;;5.47;;
64903;SDS011;51401;48.882;12.598;2023-11-21T10:39:06;7.63;;;4.88;;
64903;SDS011;51401;48.882;12.598;2023-11-21T10:41:32;10.63;;;6.13;;
64903;SDS011;51401;48.882;12.598;2023-11-21T10:44:00;7.53;;;4.97;;
64903;SDS011;51401;48.882;12.598;2023-11-21T10:46:25;10.95;;;5.82;;
64903;SDS011;51401;48.882;12.598;2023-11-21T10:48:52;8.63;;;5.18;;
64903;SDS011;51401;48.882;12.598;2023-11-21T10:51:20;7.95;;;5.40;;
64903;SDS011;51401;48.882;12.598;2023-11-21T10:53:45;9.40;;;5.07;;
64903;SDS011;51401;48.882;12.598;2023-11-21T10:56:11;8.73;;;5.28;;
64903;SDS011;51401;48.882;12.598;2023-11-21T10:58:42;7.78;;;4.82;;
64903;SDS011;51401;48.882;12.598;2023-11-21T11:01:08;7.72;;;4.75;;
64903;SDS011;51401;48.882;12.598;2023-11-21T11:03:36;7.53;;;5.18;;
64903;SDS011;51401;48.882;12.598;2023-11-21T11:06:05;6.90;;;4.30;;
64903;SDS011;51401;48.882;12.598;2023-11-21T11:08:36;8.48;;;4.68;;
64903;SDS011;51401;48.882;12.598;2023-11-21T11:11:02;6.93;;;4.22;;
64903;SDS011;51401;48.882;12.598;2023-11-21T11:13:28;7.82;;;4.65;;
64903;SDS011;51401;48.882;12.598;2023-11-21T11:16:00;7.15;;;5.00;;
64903;SDS011;51401;48.882;12.598;2023-11-21T11:18:31;6.63;;;5.00;;
64903;SDS011;51401;48.882;12.598;2023-11-21T11:21:01;6.22;;;4.55;;
64903;SDS011;51401;48.882;12.598;2023-11-21T11:23:58;5.93;;;4.55;;
64903;SDS011;51401;48.882;12.598;2023-11-21T11:26:47;6.35;;;4.10;;
64903;SDS011;51401;48.882;12.598;2023-11-21T11:29:41;6.97;;;4.40;;
64903;SDS011;51401;48.882;12.598;2023-11-21T11:35:19;7.07;;;4.22;;
64903;SDS011;51401;48.882;12.598;2023-11-21T11:37:55;6.00;;;4.57;;
64903;SDS011;51401;48.882;12.598;2023-11-21T11:40:25;6.80;;;4.38;;
64903;SDS011;51401;48.882;12.598;2023-11-21T11:43:03;7.00;;;4.47;;
64903;SDS011;51401;48.882;12.598;2023-11-21T11:45:32;6.47;;;4.80;;
64903;SDS011;51401;48.882;12.598;2023-11-21T11:48:02;6.80;;;4.63;;
64903;SDS011;51401;48.882;12.598;2023-11-21T11:50:28;8.20;;;4.90;;
64903;SDS011;51401;48.882;12.598;2023-11-21T11:52:57;6.97;;;4.30;;
64903;SDS011;51401;48.882;12.598;2023-11-21T11:55:37;7.15;;;4.47;;
64903;SDS011;51401;48.882;12.598;2023-11-21T11:58:04;6.22;;;4.30;;
64903;SDS011;51401;48.882;12.598;2023-11-21T12:00:34;8.45;;;4.82;;
64903;SDS011;51401;48.882;12.598;2023-11-21T12:03:03;6.30;;;4.75;;
64903;SDS011;51401;48.882;12.598;2023-11-21T12:05:31;6.97;;;4.40;;
64903;SDS011;51401;48.882;12.598;2023-11-21T12:07:59;6.68;;;4.25;;
64903;SDS011;51401;48.882;12.598;2023-11-21T12:10:27;6.13;;;4.50;;
64903;SDS011;51401;48.882;12.598;2023-11-21T12:12:54;6.97;;;4.95;;
64903;SDS011;51401;48.882;12.598;2023-11-21T12:15:20;8.90;;;5.18;;
64903;SDS011;51401;48.882;12.598;2023-11-21T12:17:47;7.50;;;5.78;;
64903;SDS011;51401;48.882;12.598;2023-11-21T12:20:14;8.65;;;5.30;;
64903;SDS011;51401;48.882;12.598;2023-11-21T12:22:49;6.35;;;4.95;;
64903;SDS011;51401;48.882;12.598;2023-11-21T12:25:17;5.72;;;4.90;;
64903;SDS011;51401;48.882;12.598;2023-11-21T12:27:53;7.15;;;5.00;;
64903;SDS011;51401;48.882;12.598;2023-11-21T12:30:20;4.53;;;3.90;;
64903;SDS011;51401;48.882;12.598;2023-11-21T12:32:53;6.85;;;4.70;;
64903;SDS011;51401;48.882;12.598;2023-11-21T12:35:30;5.07;;;3.83;;
64903;SDS011;51401;48.882;12.598;2023-11-21T12:37:59;10.10;;;3.50;;
64903;SDS011;51401;48.882;12.598;2023-11-21T12:40:25;5.65;;;3.65;;
64903;SDS011;51401;48.882;12.598;2023-11-21T12:42:53;5.43;;;3.45;;
64903;SDS011;51401;48.882;12.598;2023-11-21T12:48:05;5.10;;;4.00;;
64903;SDS011;51401;48.882;12.598;2023-11-21T12:50:36;6.80;;;4.40;;
64903;SDS011;51401;48.882;12.598;2023-11-21T12:53:03;7.68;;;4.45;;
64903;SDS011;51401;48.882;12.598;2023-11-21T12:55:31;5.78;;;4.35;;
64903;SDS011;51401;48.882;12.598;2023-11-21T12:57:59;6.22;;;4.95;;
64903;SDS011;51401;48.882;12.598;2023-11-21T13:00:34;11.55;;;6.70;;
64903;SDS011;51401;48.882;12.598;2023-11-21T13:03:05;6.40;;;4.38;;
64903;SDS011;51401;48.882;12.598;2023-11-21T13:08:05;7.07;;;4.35;;
64903;SDS011;51401;48.882;12.598;2023-11-21T13:10:33;5.47;;;3.90;;
64903;SDS011;51401;48.882;12.598;2023-11-21T13:13:01;6.97;;;4.53;;
64903;SDS011;51401;48.882;12.598;2023-11-21T13:15:30;5.38;;;3.47;;
64903;SDS011;51401;48.882;12.598;2023-11-21T13:17:57;9.00;;;6.10;;
64903;SDS011;51401;48.882;12.598;2023-11-21T13:20:26;20.02;;;17.90;;
64903;SDS011;51401;48.882;12.598;2023-11-21T13:22:52;10.77;;;7.25;;
64903;SDS011;51401;48.882;12.598;2023-11-21T13:27:47;6.93;;;4.93;;
64903;SDS011;51401;48.882;12.598;2023-11-21T13:30:13;8.35;;;4.75;;
64903;SDS011;51401;48.882;12.598;2023-11-21T13:32:45;9.15;;;5.30;;
64903;SDS011;51401;48.882;12.598;2023-11-21T13:35:12;8.38;;;5.65;;
64903;SDS011;51401;48.882;12.598;2023-11-21T13:37:46;6.90;;;5.30;;
64903;SDS011;51401;48.882;12.598;2023-11-21T13:40:15;8.10;;;5.65;;
64903;SDS011;51401;48.882;12.598;2023-11-21T13:42:45;5.68;;;4.43;;
64903;SDS011;51401;48.882;12.598;2023-11-21T13:45:10;7.38;;;4.85;;
64903;SDS011;51401;48.882;12.598;2023-11-21T13:47:37;6.15;;;4.30;;
64903;SDS011;51401;48.882;12.598;2023-11-21T13:50:03;6.57;;;3.95;;
64903;SDS011;51401;48.882;12.598;2023-11-21T13:52:32;4.80;;;3.80;;
64903;SDS011;51401;48.882;12.598;2023-11-21T13:54:58;7.93;;;4.85;;
64903;SDS011;51401;48.882;12.598;2023-11-21T13:57:26;6.72;;;5.32;;
64903;SDS011;51401;48.882;12.598;2023-11-21T13:59:54;6.10;;;4.50;;
64903;SDS011;51401;48.882;12.598;2023-11-21T14:02:19;7.75;;;4.60;;
64903;SDS011;51401;48.882;12.598;2023-11-21T14:04:46;7.78;;;4.47;;
64903;SDS011;51401;48.882;12.598;2023-11-21T14:07:19;9.25;;;5.82;;
64903;SDS011;51401;48.882;12.598;2023-11-21T14:09:51;7.65;;;5.50;;
64903;SDS011;51401;48.882;12.598;2023-11-21T14:12:17;7.90;;;5.28;;
64903;SDS011;51401;48.882;12.598;2023-11-21T14:14:43;9.38;;;5.75;;
64903;SDS011;51401;48.882;12.598;2023-11-21T14:17:10;8.15;;;5.00;;
64903;SDS011;51401;48.882;12.598;2023-11-21T14:19:35;7.53;;;5.20;;
64903;SDS011;51401;48.882;12.598;2023-11-21T14:22:05;6.05;;;4.35;;
64903;SDS011;51401;48.882;12.598;2023-11-21T14:24:30;7.40;;;4.72;;
64903;SDS011;51401;48.882;12.598;2023-11-21T14:26:57;6.03;;;4.63;;
64903;SDS011;51401;48.882;12.598;2023-11-21T14:29:22;6.68;;;4.78;;
64903;SDS011;51401;48.882;12.598;2023-11-21T14:31:48;6.20;;;4.45;;
64903;SDS011;51401;48.882;12.598;2023-11-21T14:34:16;6.28;;;4.60;;
64903;SDS011;51401;48.882;12.598;2023-11-21T14:36:42;5.28;;;3.90;;
64903;SDS011;51401;48.882;12.598;2023-11-21T14:39:08;5.22;;;3.97;;
64903;SDS011;51401;48.882;12.598;2023-11-21T14:41:43;5.88;;;4.43;;
64903;SDS011;51401;48.882;12.598;2023-11-21T14:44:09;6.28;;;4.82;;
64903;SDS011;51401;48.882;12.598;2023-11-21T14:46:37;6.50;;;5.05;;